Create Tblcommutelog Verified Points Advance Search
| # | Trip ID | Id Commuter | Trip Date | Trip Num | Current Lat | Current Lng | Delta Distance | Current Time | Activity | Activity Confidence | Current Speed | |
|---|---|---|---|---|---|---|---|---|---|---|---|---|
| 73441 | 250610_781975_16497756_0714 | 781975 | (not set) | (not set) | 38.669443158469 | -77.259611366389 | 5.3839 | 2025-06-10 11:44:54.5 | in_vehicle | 100 | -0.44703925898772 | |
| 73442 | 250610_781975_16497756_0714 | 781975 | (not set) | (not set) | 38.669569180383 | -77.258895048944 | 5.4236 | 2025-06-10 11:44:55.095 | in_vehicle | 100 | 15.597199746082 | |
| 73443 | 250610_785147_16514010_0659 | 785147 | (not set) | (not set) | 38.974851487115 | -77.691699175419 | 31.2543 | 2025-06-10 11:44:56.297 | in_vehicle | 100 | 9.2000679499674 | |
| 73444 | 250610_785557_16472427_0734 | 785557 | (not set) | (not set) | 39.1789586 | -76.6938041 | 6.398 | 2025-06-10 11:44:57.645 | still | 100 | 10.107557645712 | |
| 73445 | 250610_779784_16456978_0734 | 779784 | (not set) | (not set) | 39.29281681543 | -77.314710272016 | 4.4547 | 2025-06-10 11:44:58.572 | in_vehicle | 100 | 0 | |
| 73446 | 250610_766543_16447453_0732 | 766543 | (not set) | (not set) | 38.876451303704 | -77.005995561905 | 5.0023 | 2025-06-10 11:44:59.534 | in_vehicle | 100 | -0.44703925898772 | |
| 73447 | 250610_781276_16462228_0735 | 781276 | (not set) | (not set) | 38.862711995559 | -77.059538004133 | 0.6846 | 2025-06-10 11:45:00.219 | unknown | 100 | -0.44703925898772 | |
| 73448 | 250610_781315_16512165_0739 | 781315 | (not set) | (not set) | 38.944736173317 | -77.063855871081 | 0 | 2025-06-10 11:45:03.28 | unknown | 100 | -0.44703925898772 | |
| 73449 | 250610_764454_16507126_0704 | 764454 | (not set) | (not set) | 38.936202450717 | -77.267533480309 | 20.2471 | 2025-06-10 11:45:04.279 | in_vehicle | 100 | 12.512628859066 | |
| 73450 | 250610_767309_6423049_0709 | 767309 | (not set) | (not set) | 38.897454152643 | -77.043537493294 | 10.0246 | 2025-06-10 11:45:04.339 | on_foot | 100 | 0.99242715495275 | |
| 73451 | 250610_766543_16447453_0732 | 766543 | (not set) | (not set) | 38.876487723773 | -77.006011957197 | 5.0023 | 2025-06-10 11:45:04.647 | in_vehicle | 100 | -0.44703925898772 | |
| 73452 | 250610_761201_16505415_0745 | 761201 | (not set) | (not set) | 38.862713505198 | -77.10652485621 | 0 | 2025-06-10 11:45:04.694 | unknown | 100 | 0 | |
| 73453 | 250610_761201_16505415_0745 | 761201 | (not set) | (not set) | 38.862713505198 | -77.10652485621 | 0 | 2025-06-10 11:45:04.74 | unknown | 100 | 0 | |
| 73454 | 250610_784278_16513851_0723 | 784278 | (not set) | (not set) | 39.231539439075 | -77.450066436924 | 15.7331 | 2025-06-10 11:45:05.525 | in_vehicle | 100 | 10.836231637862 | |
| 73455 | 250610_772259_16460160_0726 | 772259 | (not set) | (not set) | 39.00795016003 | -77.080474809911 | 4.6263 | 2025-06-10 11:45:06.674 | in_vehicle | 100 | 0 | |
| 73456 | 250610_777375_16513753_0655 | 777375 | (not set) | (not set) | 39.075836060766 | -76.716704378418 | 14.4801 | 2025-06-10 11:45:07.216 | unknown | 100 | 12.892612229206 | |
| 73457 | 250610_766975_16479173_0719 | 766975 | (not set) | (not set) | 39.001457817942 | -77.092680334529 | 4.3263 | 2025-06-10 11:45:07.336 | on_foot | 100 | 0.57221025150429 | |
| 73458 | 250610_781975_16497756_0714 | 781975 | (not set) | (not set) | 38.670211335213 | -77.254086433872 | 5.6874 | 2025-06-10 11:45:07.395 | in_vehicle | 100 | 16.075531753199 | |
| 73459 | 250610_785331_6438355_0729 | 785331 | (not set) | (not set) | 38.920412157302 | -77.221758305587 | 8.845 | 2025-06-10 11:45:07.997 | in_vehicle | 100 | -0.44703925898772 | |
| 73460 | 250610_774046_16504560_0711 | 774046 | (not set) | (not set) | 38.931616298936 | -77.056337148467 | 13.8435 | 2025-06-10 11:45:08.134 | in_vehicle | 100 | -0.44703925898772 |